Time;durP1;ratioP1;P1;durP2;ratioP2;P2;SDS_P1;SDS_P2;PMS_P1;PMS_P2;Temp;Humidity;BMP_temperature;BMP_pressure;BME280_temperature;BME280_humidity;BME280_pressure;Samples;Min_cycle;Max_cycle;Signal;HPM_P1;HPM_P2
2021/06/15 00:02:32;;;;;;;7.20;4.55;;;15.70;92.20;;;;;;6205236;28;20070;-77
2021/06/15 00:05:34;;;;;;;6.50;5.43;;;15.70;92.40;;;;;;6205375;28;20125;-79
2021/06/15 00:08:37;;;;;;;6.05;5.03;;;15.60;92.40;;;;;;6204177;28;20141;-80
2021/06/15 00:11:39;;;;;;;5.65;5.03;;;15.50;92.90;;;;;;6204063;28;20492;-79
2021/06/15 00:14:41;;;;;;;5.18;4.53;;;15.50;92.80;;;;;;6204910;28;20054;-77
2021/06/15 00:17:43;;;;;;;7.18;5.32;;;15.50;92.80;;;;;;6204883;28;20105;-80
2021/06/15 00:20:46;;;;;;;8.82;5.30;;;15.50;92.90;;;;;;6203773;28;20126;-77
2021/06/15 00:23:49;;;;;;;5.93;4.82;;;15.40;93.00;;;;;;6203649;28;20508;-78
2021/06/15 00:26:51;;;;;;;8.38;4.82;;;15.40;93.20;;;;;;6204924;28;20051;-77
2021/06/15 00:29:53;;;;;;;5.93;4.97;;;15.30;93.20;;;;;;6205416;28;20048;-79
2021/06/15 00:32:55;;;;;;;5.80;4.35;;;15.30;93.50;;;;;;6203969;28;20069;-79
2021/06/15 00:35:56;;;;;;;5.43;4.43;;;15.40;93.30;;;;;;6203857;28;20057;-79
2021/06/15 00:39:00;;;;;;;4.45;3.97;;;15.40;93.10;;;;;;6207577;28;20627;-79
2021/06/15 00:42:03;;;;;;;7.72;4.95;;;15.50;93.10;;;;;;6230114;28;20056;-79
2021/06/15 00:45:07;;;;;;;6.63;5.00;;;15.40;93.20;;;;;;6227840;28;20132;-79
2021/06/15 00:48:25;;;;;;;7.32;4.95;;;15.30;93.30;;;;;;6226910;28;20053;-79
2021/06/15 00:51:26;;;;;;;5.05;4.35;;;15.20;93.40;;;;;;6226402;28;20508;-78
2021/06/15 00:54:30;;;;;;;6.03;5.40;;;15.10;93.60;;;;;;6227485;28;20439;-79
2021/06/15 00:57:32;;;;;;;8.73;5.38;;;15.00;93.90;;;;;;6227976;28;20065;-79
2021/06/15 01:00:34;;;;;;;7.53;5.00;;;14.90;94.00;;;;;;6227795;28;20052;-79
2021/06/15 01:03:36;;;;;;;7.25;5.03;;;14.90;94.20;;;;;;6228124;28;20092;-79
2021/06/15 01:06:59;;;;;;;6.18;5.13;;;14.90;94.30;;;;;;6227670;28;20132;-79
2021/06/15 01:10:07;;;;;;;7.05;5.15;;;14.80;94.40;;;;;;6227984;28;20065;-79
2021/06/15 01:13:21;;;;;;;7.78;6.00;;;14.90;94.50;;;;;;6227106;28;20129;-78
2021/06/15 01:16:28;;;;;;;9.45;5.28;;;14.80;94.40;;;;;;6248275;23;20049;-77
2021/06/15 01:19:48;;;;;;;7.90;5.25;;;14.80;94.60;;;;;;6246694;28;20567;-76
2021/06/15 01:23:16;;;;;;;9.90;5.57;;;14.80;94.60;;;;;;6249026;28;20045;-76
2021/06/15 01:26:45;;;;;;;4.88;4.47;;;14.80;94.70;;;;;;6221536;28;20080;-77
2021/06/15 01:29:52;;;;;;;5.65;5.00;;;14.80;94.70;;;;;;6230664;28;20045;-77
2021/06/15 01:32:59;;;;;;;6.45;4.90;;;14.70;95.00;;;;;;6251596;28;20463;-75
2021/06/15 01:36:02;;;;;;;6.57;4.50;;;14.70;94.90;;;;;;6251331;28;20050;-77
2021/06/15 01:39:11;;;;;;;8.85;5.47;;;14.70;94.90;;;;;;6250953;28;20860;-77
2021/06/15 01:42:20;;;;;;;5.35;4.40;;;14.60;94.90;;;;;;6251902;28;20061;-77
2021/06/15 01:45:29;;;;;;;6.13;4.93;;;14.50;95.00;;;;;;6251603;28;20042;-76
2021/06/15 01:48:36;;;;;;;8.45;5.60;;;14.50;95.40;;;;;;6251261;28;20128;-77
2021/06/15 01:51:40;;;;;;;6.50;4.70;;;14.50;95.40;;;;;;6251323;28;20083;-76
2021/06/15 01:54:43;;;;;;;6.43;5.05;;;14.40;95.40;;;;;;6252094;28;20060;-77
2021/06/15 01:57:46;;;;;;;6.40;5.50;;;14.30;95.60;;;;;;6250976;28;20077;-77
2021/06/15 02:00:50;;;;;;;5.95;5.35;;;14.30;95.70;;;;;;6251143;28;20049;-77
2021/06/15 02:03:54;;;;;;;5.57;4.97;;;14.20;96.00;;;;;;6250996;28;20054;-77
2021/06/15 02:06:58;;;;;;;6.30;5.57;;;14.20;96.20;;;;;;6252360;28;20160;-77
2021/06/15 02:10:06;;;;;;;8.85;5.63;;;14.20;96.20;;;;;;6254387;28;20131;-75
2021/06/15 02:13:08;;;;;;;5.82;5.15;;;14.20;96.20;;;;;;6250880;28;20084;-75
2021/06/15 02:16:12;;;;;;;8.85;4.90;;;14.10;96.30;;;;;;6249551;28;20192;-77
2021/06/15 02:19:17;;;;;;;6.30;5.70;;;14.00;96.50;;;;;;6249718;28;20100;-77
2021/06/15 02:22:20;;;;;;;6.82;4.85;;;14.00;96.60;;;;;;6250814;28;20560;-77
2021/06/15 02:25:25;;;;;;;6.68;6.05;;;14.00;96.90;;;;;;6250138;28;20111;-77
2021/06/15 02:28:28;;;;;;;7.10;6.35;;;13.90;97.00;;;;;;6250040;28;20530;-77
2021/06/15 02:31:34;;;;;;;6.57;5.97;;;13.90;97.10;;;;;;6250290;28;20118;-77
2021/06/15 02:34:38;;;;;;;6.30;5.70;;;13.90;97.10;;;;;;6249757;28;20061;-77
2021/06/15 02:37:53;;;;;;;11.73;5.55;;;13.90;97.10;;;;;;6249407;28;20049;-77
2021/06/15 02:41:00;;;;;;;5.88;5.25;;;13.80;97.10;;;;;;6249715;28;20095;-76
2021/06/15 02:44:04;;;;;;;9.37;4.80;;;13.90;97.20;;;;;;6249509;28;20515;-77
2021/06/15 02:47:10;;;;;;;5.15;4.65;;;13.90;97.40;;;;;;6249914;28;20119;-77
2021/06/15 02:50:16;;;;;;;4.93;4.53;;;13.90;97.50;;;;;;6249858;28;20076;-77
2021/06/15 02:53:25;;;;;;;8.63;5.47;;;14.00;97.30;;;;;;6249689;28;20551;-77
2021/06/15 02:56:30;;;;;;;6.38;5.57;;;14.00;97.00;;;;;;6249698;28;20518;-77
2021/06/15 02:59:32;;;;;;;6.43;5.22;;;13.90;97.10;;;;;;6249596;28;20061;-77
2021/06/15 03:02:35;;;;;;;8.35;4.95;;;13.90;97.20;;;;;;6250747;28;20119;-78
2021/06/15 03:05:37;;;;;;;7.90;5.47;;;13.90;97.30;;;;;;6249815;28;20115;-77
2021/06/15 03:08:41;;;;;;;6.15;5.25;;;13.90;97.30;;;;;;6249106;28;20550;-77
2021/06/15 03:11:46;;;;;;;8.68;6.07;;;13.80;97.50;;;;;;6249391;28;20042;-77
2021/06/15 03:14:53;;;;;;;6.15;5.07;;;13.80;97.50;;;;;;6249657;28;20140;-77
2021/06/15 03:18:04;;;;;;;6.57;4.45;;;13.90;98.20;;;;;;6249721;28;20119;-77
2021/06/15 03:21:09;;;;;;;5.47;4.28;;;14.20;97.80;;;;;;6249466;28;20716;-78
2021/06/15 03:24:18;;;;;;;8.88;5.43;;;14.60;96.80;;;;;;6249801;28;20115;-77
2021/06/15 03:27:31;;;;;;;4.85;4.45;;;14.70;96.20;;;;;;6249458;28;20068;-77
2021/06/15 03:30:34;;;;;;;10.65;3.92;;;14.90;95.40;;;;;;6248722;28;20486;-76
2021/06/15 03:33:41;;;;;;;6.28;4.20;;;14.90;94.90;;;;;;6247104;28;20502;-76
2021/06/15 03:36:44;;;;;;;5.68;5.10;;;14.90;94.70;;;;;;6247209;28;20134;-77
2021/06/15 03:39:47;;;;;;;7.72;5.55;;;14.90;94.80;;;;;;6246701;28;20506;-77
2021/06/15 03:42:51;;;;;;;8.65;6.22;;;14.80;94.50;;;;;;6247287;28;20083;-75
2021/06/15 03:45:58;;;;;;;13.95;6.50;;;14.70;94.90;;;;;;6246726;28;20053;-77
2021/06/15 03:49:04;;;;;;;5.82;5.30;;;14.60;95.50;;;;;;6246679;28;20111;-77
2021/06/15 03:52:08;;;;;;;7.72;5.10;;;14.50;96.10;;;;;;6246802;28;20049;-76
2021/06/15 03:55:13;;;;;;;5.13;4.63;;;14.70;96.20;;;;;;6246696;28;20808;-77
2021/06/15 03:58:16;;;;;;;5.78;5.13;;;14.80;95.30;;;;;;6247332;28;20093;-76
2021/06/15 04:01:19;;;;;;;5.53;4.93;;;14.70;95.00;;;;;;6246321;28;20045;-76
2021/06/15 04:04:24;;;;;;;5.35;4.85;;;14.50;95.60;;;;;;6246752;28;20125;-76
2021/06/15 04:07:26;;;;;;;6.05;5.22;;;14.50;95.70;;;;;;6246344;28;20167;-76
2021/06/15 04:10:29;;;;;;;4.78;4.32;;;14.70;95.30;;;;;;6246653;28;20130;-76
2021/06/15 04:13:32;;;;;;;7.15;6.45;;;14.80;95.00;;;;;;6246360;28;20426;-76
2021/06/15 04:16:33;;;;;;;5.80;4.30;;;14.80;94.80;;;;;;6245904;28;20566;-77
2021/06/15 04:19:42;;;;;;;5.97;5.47;;;14.90;94.50;;;;;;6246187;28;20443;-76
2021/06/15 04:22:45;;;;;;;;;;;14.90;94.60;;;;;;6247314;28;20124;-77
2021/06/15 04:25:48;;;;;;;6.10;4.53;;;14.90;94.60;;;;;;6221746;28;20008;-77
2021/06/15 04:28:50;;;;;;;8.80;5.60;;;14.90;94.50;;;;;;6238502;28;20053;-76
2021/06/15 04:31:56;;;;;;;5.72;5.22;;;14.80;94.50;;;;;;6246121;28;20045;-77
2021/06/15 04:35:03;;;;;;;5.63;4.97;;;14.70;95.00;;;;;;6246174;28;20059;-76
2021/06/15 04:38:10;;;;;;;8.27;5.55;;;14.80;95.50;;;;;;6246446;28;20050;-76
2021/06/15 04:41:17;;;;;;;4.37;3.70;;;15.10;95.20;;;;;;6246012;28;20069;-76
2021/06/15 04:44:24;;;;;;;7.65;5.00;;;15.40;95.00;;;;;;6246016;28;20072;-76
2021/06/15 04:47:28;;;;;;;3.92;3.63;;;15.70;94.40;;;;;;6246098;28;20042;-75
2021/06/15 04:50:33;;;;;;;7.18;4.95;;;15.90;94.00;;;;;;6245996;28;20471;-76
2021/06/15 04:53:39;;;;;;;5.80;5.35;;;16.00;93.60;;;;;;6245853;28;20544;-77
2021/06/15 04:56:42;;;;;;;5.38;4.53;;;16.10;93.50;;;;;;6246049;28;20041;-75
2021/06/15 04:59:46;;;;;;;5.45;4.70;;;16.40;93.20;;;;;;6250530;28;20068;-76
2021/06/15 05:02:50;;;;;;;6.32;4.57;;;16.80;92.70;;;;;;6250734;28;20506;-76
2021/06/15 05:05:53;;;;;;;5.80;4.93;;;17.00;92.40;;;;;;6250915;28;20068;-76
2021/06/15 05:08:58;;;;;;;4.18;3.78;;;17.30;92.10;;;;;;6250319;28;20184;-77
2021/06/15 05:12:01;;;;;;;6.63;4.25;;;17.60;91.70;;;;;;6250383;28;20064;-75
2021/06/15 05:15:04;;;;;;;4.78;4.28;;;17.90;91.20;;;;;;6250536;28;20053;-75
2021/06/15 05:18:06;;;;;;;8.93;4.78;;;18.20;90.80;;;;;;6250585;28;20127;-75
2021/06/15 05:21:12;;;;;;;7.47;4.97;;;18.50;90.10;;;;;;6249837;28;20095;-75
2021/06/15 05:24:28;;;;;;;8.27;4.75;;;18.90;87.60;;;;;;6250106;28;20132;-74
2021/06/15 05:27:32;;;;;;;8.00;4.15;;;19.10;87.00;;;;;;6250285;28;20114;-75
2021/06/15 05:30:34;;;;;;;13.25;5.28;;;19.30;86.20;;;;;;6249945;28;20192;-75
2021/06/15 05:33:36;;;;;;;10.43;5.30;;;19.50;84.80;;;;;;6250179;28;20092;-74
2021/06/15 05:36:39;;;;;;;6.25;4.50;;;19.80;84.80;;;;;;6249846;28;20076;-74
2021/06/15 05:39:41;;;;;;;6.93;4.97;;;20.10;85.70;;;;;;6249882;28;20042;-75
2021/06/15 05:42:44;;;;;;;6.28;5.10;;;20.20;82.60;;;;;;6250159;28;20150;-75
2021/06/15 05:45:45;;;;;;;11.05;6.32;;;20.20;81.70;;;;;;6249480;28;20104;-75
2021/06/15 05:48:47;;;;;;;6.63;5.53;;;20.20;81.60;;;;;;6249703;28;20536;-74
2021/06/15 05:51:56;;;;;;;6.68;5.15;;;20.40;79.80;;;;;;6249627;28;20184;-75
2021/06/15 05:55:00;;;;;;;9.15;4.47;;;20.70;78.10;;;;;;6249612;28;20140;-75
2021/06/15 05:58:02;;;;;;;10.13;4.97;;;20.90;76.80;;;;;;6249547;28;20053;-75
2021/06/15 06:01:04;;;;;;;9.50;5.38;;;21.10;76.40;;;;;;6248691;28;20180;-75
2021/06/15 06:04:07;;;;;;;11.20;4.75;;;21.60;74.80;;;;;;6238449;28;20514;-74
2021/06/15 06:10:30;;;;;;;3.55;3.25;;;23.60;66.50;;;;;;6230846;28;20053;-75
2021/06/15 06:13:33;;;;;;;6.07;3.95;;;24.50;63.80;;;;;;6224420;28;20125;-75
2021/06/15 06:16:37;;;;;;;8.18;4.00;;;25.20;61.70;;;;;;6223935;28;20505;-74
2021/06/15 06:19:40;;;;;;;7.38;3.50;;;25.80;59.60;;;;;;6223704;28;20038;-76
2021/06/15 06:22:44;;;;;;;8.52;4.15;;;26.10;58.40;;;;;;6237164;28;20049;-75
2021/06/15 06:25:46;;;;;;;12.35;4.57;;;26.50;56.80;;;;;;6249001;28;20045;-75
2021/06/15 06:28:48;;;;;;;8.48;4.47;;;26.80;55.70;;;;;;6248331;28;20055;-75
2021/06/15 06:31:50;;;;;;;7.57;4.18;;;27.00;54.50;;;;;;6248299;28;20514;-75
2021/06/15 06:34:51;;;;;;;5.47;4.28;;;27.20;53.50;;;;;;6248249;28;20056;-76
2021/06/15 06:37:54;;;;;;;8.57;4.50;;;27.40;53.80;;;;;;6248802;28;20083;-76
2021/06/15 06:40:56;;;;;;;8.05;4.22;;;27.20;54.80;;;;;;6248003;28;20053;-75
2021/06/15 06:43:58;;;;;;;5.45;3.38;;;26.20;54.20;;;;;;6248075;28;20495;-75
2021/06/15 06:47:00;;;;;;;8.48;4.00;;;25.30;56.70;;;;;;6247551;28;20050;-75
2021/06/15 06:50:03;;;;;;;8.68;3.70;;;24.80;57.80;;;;;;6248095;28;20167;-75
2021/06/15 06:53:06;;;;;;;5.28;3.60;;;24.50;59.20;;;;;;6248230;28;20529;-75
2021/06/15 06:56:09;;;;;;;10.63;3.97;;;24.20;59.70;;;;;;6247895;28;20244;-75
2021/06/15 06:59:10;;;;;;;8.07;4.28;;;24.30;61.10;;;;;;6247578;28;20585;-75
2021/06/15 07:02:12;;;;;;;14.15;5.07;;;24.30;61.30;;;;;;6248264;28;20108;-75
2021/06/15 07:05:14;;;;;;;7.32;3.60;;;24.30;61.40;;;;;;6250033;28;20139;-75
2021/06/15 07:08:18;;;;;;;8.73;4.85;;;24.20;61.10;;;;;;6247777;28;20545;-75
2021/06/15 07:11:20;;;;;;;10.80;3.70;;;24.30;61.40;;;;;;6247482;28;20048;-76
2021/06/15 07:14:22;;;;;;;3.58;3.08;;;24.40;61.60;;;;;;6231989;28;20049;-75
2021/06/15 07:17:24;;;;;;;7.10;4.28;;;24.50;61.50;;;;;;6232383;23;20074;-76
2021/06/15 07:20:26;;;;;;;3.45;3.10;;;24.50;60.60;;;;;;6198486;28;20652;-76
2021/06/15 07:23:29;;;;;;;11.38;3.50;;;24.50;60.20;;;;;;6198414;28;20125;-76
2021/06/15 07:26:31;;;;;;;6.18;3.28;;;24.60;60.20;;;;;;6199252;28;20082;-75
2021/06/15 07:29:32;;;;;;;5.47;3.20;;;24.70;59.70;;;;;;6197869;28;20571;-76
2021/06/15 07:32:34;;;;;;;4.80;2.80;;;24.90;59.20;;;;;;6198577;28;20106;-76
2021/06/15 07:35:36;;;;;;;4.18;2.88;;;25.00;58.70;;;;;;6198252;28;20609;-76
2021/06/15 07:38:39;;;;;;;4.18;3.13;;;25.10;58.20;;;;;;6198506;28;20137;-76
2021/06/15 07:41:41;;;;;;;7.35;3.28;;;25.40;57.80;;;;;;6198252;28;20172;-76
2021/06/15 07:44:43;;;;;;;4.50;3.15;;;25.60;56.20;;;;;;6198464;28;20073;-76
2021/06/15 07:47:45;;;;;;;19.42;3.47;;;25.80;56.10;;;;;;6198045;28;20121;-75
2021/06/15 07:50:47;;;;;;;7.10;3.65;;;25.90;56.00;;;;;;6197791;28;20088;-76
2021/06/15 07:53:51;;;;;;;6.57;3.42;;;26.00;56.20;;;;;;6198294;28;20139;-76
2021/06/15 07:56:52;;;;;;;9.93;3.60;;;26.10;55.10;;;;;;6198127;28;20073;-76
2021/06/15 07:59:54;;;;;;;8.18;3.95;;;26.20;54.70;;;;;;6197508;28;20524;-76
2021/06/15 08:02:56;;;;;;;6.90;3.65;;;26.30;54.80;;;;;;6197978;28;20135;-76
2021/06/15 08:05:58;;;;;;;22.45;4.13;;;26.40;53.30;;;;;;6198217;28;20136;-77
2021/06/15 08:09:01;;;;;;;7.43;3.78;;;26.50;53.80;;;;;;6197495;28;20124;-76
2021/06/15 08:12:04;;;;;;;5.55;3.20;;;26.60;54.40;;;;;;6198232;28;20526;-76
2021/06/15 08:15:07;;;;;;;3.92;3.38;;;26.70;52.30;;;;;;6197787;28;20533;-76
2021/06/15 08:18:09;;;;;;;5.97;3.47;;;26.70;52.30;;;;;;6198064;28;20077;-77
2021/06/15 08:21:13;;;;;;;3.88;3.30;;;26.70;51.50;;;;;;6197205;28;20185;-76
2021/06/15 08:24:17;;;;;;;6.75;2.53;;;26.60;52.20;;;;;;6197494;28;20494;-77
2021/06/15 08:27:19;;;;;;;6.03;3.30;;;26.70;52.40;;;;;;6197599;28;20049;-76
2021/06/15 08:30:22;;;;;;;5.47;3.10;;;26.90;52.10;;;;;;6197807;28;20057;-76
2021/06/15 08:33:23;;;;;;;4.30;3.17;;;26.90;52.50;;;;;;6196784;28;20081;-76
2021/06/15 08:36:26;;;;;;;4.70;3.38;;;27.00;52.40;;;;;;6197424;28;20494;-76
2021/06/15 08:39:29;;;;;;;6.28;3.63;;;27.30;52.00;;;;;;6196793;28;20069;-76
2021/06/15 08:42:31;;;;;;;5.72;3.58;;;27.50;50.60;;;;;;6198203;28;20129;-77
2021/06/15 08:45:33;;;;;;;8.30;3.47;;;27.50;50.50;;;;;;6197243;28;20132;-77
2021/06/15 08:48:34;;;;;;;5.03;3.20;;;27.60;49.50;;;;;;6196881;28;20134;-76
2021/06/15 08:51:37;;;;;;;6.13;3.10;;;27.50;50.30;;;;;;6197573;28;20053;-76
2021/06/15 08:54:40;;;;;;;4.00;3.63;;;27.60;50.40;;;;;;6197723;28;20114;-77
2021/06/15 08:57:43;;;;;;;5.10;2.85;;;27.80;49.80;;;;;;6197176;28;20137;-76
2021/06/15 09:00:45;;;;;;;5.88;3.03;;;28.00;49.80;;;;;;6197015;28;20043;-76
2021/06/15 09:03:52;;;;;;;6.68;3.42;;;28.20;50.60;;;;;;6197447;28;20046;-77
2021/06/15 09:06:56;;;;;;;3.97;3.58;;;28.50;48.60;;;;;;6197259;28;20058;-76
2021/06/15 09:09:59;;;;;;;7.35;3.60;;;28.50;49.00;;;;;;6197301;28;20198;-76
2021/06/15 09:13:01;;;;;;;4.80;3.28;;;28.60;49.40;;;;;;6191980;28;20579;-76
2021/06/15 09:16:19;;;;;;;7.85;3.15;;;28.80;49.00;;;;;;6172932;28;20129;-76
2021/06/15 09:19:22;;;;;;;5.53;3.50;;;29.10;48.40;;;;;;6172901;28;20082;-77
2021/06/15 09:22:30;;;;;;;8.10;3.22;;;29.20;47.60;;;;;;6173472;28;20189;-76
2021/06/15 09:25:34;;;;;;;3.72;2.75;;;29.30;47.80;;;;;;6172919;28;20500;-77
2021/06/15 09:28:36;;;;;;;4.47;2.80;;;29.20;47.30;;;;;;6172438;28;20577;-78
2021/06/15 09:31:51;;;;;;;7.18;3.10;;;29.10;47.50;;;;;;6172843;28;20118;-76
2021/06/15 09:34:56;;;;;;;4.65;2.55;;;29.10;47.40;;;;;;6172796;28;20343;-75
2021/06/15 09:38:00;;;;;;;6.43;3.78;;;29.30;47.10;;;;;;6172785;28;20419;-75
2021/06/15 09:41:03;;;;;;;4.13;2.97;;;29.50;46.90;;;;;;6172494;28;20062;-75
2021/06/15 09:44:15;;;;;;;8.52;4.60;;;29.60;47.00;;;;;;6173442;28;20051;-76
2021/06/15 09:47:22;;;;;;;6.97;3.15;;;29.80;46.80;;;;;;6176707;28;20104;-75
2021/06/15 09:50:24;;;;;;;4.57;3.43;;;29.80;45.80;;;;;;6176745;28;20050;-76
2021/06/15 09:53:31;;;;;;;4.53;3.00;;;29.90;46.40;;;;;;6176582;28;20418;-75
2021/06/15 09:56:34;;;;;;;5.00;3.27;;;30.00;46.20;;;;;;6176733;28;20125;-75
2021/06/15 09:59:36;;;;;;;3.58;2.50;;;30.10;46.60;;;;;;6176044;28;20321;-76
2021/06/15 10:02:47;;;;;;;7.75;2.72;;;30.30;43.80;;;;;;6177056;28;20051;-76
2021/06/15 10:05:49;;;;;;;3.97;2.33;;;30.20;43.70;;;;;;6176607;28;20047;-75
2021/06/15 10:08:51;;;;;;;3.35;2.70;;;29.90;43.00;;;;;;6176226;28;20411;-76
2021/06/15 10:11:56;;;;;;;2.78;2.35;;;29.80;44.10;;;;;;6176164;28;20415;-76
2021/06/15 10:15:00;;;;;;;4.38;3.05;;;29.80;43.20;;;;;;6197132;28;20082;-76
2021/06/15 10:18:03;;;;;;;6.30;2.35;;;29.80;42.60;;;;;;6200617;28;20054;-76
2021/06/15 10:21:05;;;;;;;6.15;2.63;;;29.70;42.20;;;;;;6200089;28;20068;-76
2021/06/15 10:24:07;;;;;;;8.57;3.58;;;29.80;42.30;;;;;;6199981;28;20076;-76
2021/06/15 10:27:12;;;;;;;5.38;3.28;;;29.70;42.60;;;;;;6200327;28;20178;-75
2021/06/15 10:30:16;;;;;;;5.22;2.65;;;29.70;43.30;;;;;;6200748;28;20247;-76
2021/06/15 10:33:22;;;;;;;3.78;2.40;;;30.00;43.60;;;;;;6200155;28;20047;-77
2021/06/15 10:36:41;;;;;;;9.32;3.45;;;30.30;42.40;;;;;;6199883;28;20046;-77
2021/06/15 10:39:44;;;;;;;8.45;2.95;;;30.20;42.60;;;;;;6199784;28;20042;-77
2021/06/15 10:43:12;;;;;;;6.07;2.95;;;30.40;42.50;;;;;;6199683;28;20054;-77
2021/06/15 10:46:45;;;;;;;4.25;2.42;;;30.70;42.30;;;;;;6200404;28;20054;-75
2021/06/15 10:49:58;;;;;;;3.83;2.58;;;30.90;41.60;;;;;;6148532;28;20086;-76
2021/06/15 10:53:05;;;;;;;6.80;2.47;;;31.00;41.90;;;;;;6199459;28;20051;-76
2021/06/15 10:56:08;;;;;;;11.13;2.55;;;31.30;40.50;;;;;;6199087;28;20516;-75
2021/06/15 10:59:12;;;;;;;5.40;3.03;;;31.30;41.40;;;;;;6199386;28;20073;-76
2021/06/15 11:02:14;;;;;;;2.90;2.55;;;31.40;41.00;;;;;;6200035;28;20046;-75
2021/06/15 11:05:39;;;;;;;5.78;2.70;;;31.60;41.10;;;;;;6199409;28;20051;-76
2021/06/15 11:08:41;;;;;;;4.13;2.67;;;31.80;40.70;;;;;;6199304;28;20050;-76
2021/06/15 11:11:44;;;;;;;6.38;2.40;;;32.00;40.00;;;;;;6198811;28;20042;-76
2021/06/15 11:15:14;;;;;;;3.05;2.30;;;32.00;39.70;;;;;;6180123;28;20133;-76
2021/06/15 11:18:16;;;;;;;5.55;2.67;;;32.20;40.20;;;;;;6175012;28;20148;-75
2021/06/15 11:21:18;;;;;;;7.32;2.80;;;32.40;38.90;;;;;;6174060;28;20562;-76
2021/06/15 11:24:20;;;;;;;3.17;2.88;;;32.40;37.60;;;;;;6174488;28;20047;-76
2021/06/15 11:27:37;;;;;;;3.28;2.40;;;32.20;38.70;;;;;;6174275;28;20053;-76
2021/06/15 11:30:41;;;;;;;7.63;3.55;;;32.40;38.30;;;;;;6181523;28;20058;-75
2021/06/15 11:34:14;;;;;;;6.20;2.00;;;32.80;37.90;;;;;;6197758;28;20046;-75
2021/06/15 11:37:20;;;;;;;4.93;2.20;;;33.40;36.30;;;;;;6172830;28;20484;-75
2021/06/15 11:40:27;;;;;;;4.75;3.08;;;33.80;35.50;;;;;;6198144;28;20093;-75
2021/06/15 11:43:29;;;;;;;6.28;4.53;;;33.80;35.10;;;;;;6198386;28;20046;-75
2021/06/15 11:46:32;;;;;;;5.30;2.72;;;33.90;35.10;;;;;;6198730;28;20082;-73
2021/06/15 11:49:34;;;;;;;2.78;2.08;;;33.90;35.30;;;;;;6198375;28;20126;-73
2021/06/15 11:52:37;;;;;;;7.25;2.58;;;33.80;35.30;;;;;;6198625;28;20128;-73
2021/06/15 11:55:40;;;;;;;3.33;2.80;;;34.00;35.70;;;;;;6197571;28;20101;-73
2021/06/15 11:58:46;;;;;;;3.60;2.00;;;34.00;34.00;;;;;;6198140;28;20516;-73
2021/06/15 12:01:49;;;;;;;3.63;2.05;;;34.00;34.80;;;;;;6222325;28;20046;-73
2021/06/15 12:05:09;;;;;;;2.90;2.33;;;34.20;34.20;;;;;;6221942;28;20129;-74
2021/06/15 12:08:11;;;;;;;2.38;1.58;;;34.00;35.80;;;;;;6221149;28;20049;-74
2021/06/15 12:11:15;;;;;;;3.72;2.25;;;34.00;34.60;;;;;;6221708;28;20093;-76
2021/06/15 12:14:17;;;;;;;2.35;1.80;;;34.20;34.50;;;;;;6222133;28;20120;-76
2021/06/15 12:17:20;;;;;;;3.28;1.88;;;34.20;32.70;;;;;;6221748;28;20124;-75
2021/06/15 12:20:28;;;;;;;2.10;1.58;;;34.00;33.30;;;;;;6221601;28;20531;-73
2021/06/15 12:23:36;;;;;;;2.58;1.65;;;33.80;32.40;;;;;;6222047;28;20049;-75
2021/06/15 12:26:42;;;;;;;2.40;2.08;;;33.40;33.00;;;;;;6222129;28;20140;-75
2021/06/15 12:29:44;;;;;;;2.42;1.25;;;33.50;33.50;;;;;;6221615;28;20109;-73
2021/06/15 12:32:49;;;;;;;3.85;1.75;;;33.70;33.30;;;;;;6214806;28;20168;-73
2021/06/15 12:35:51;;;;;;;2.47;1.10;;;33.90;32.60;;;;;;6221388;28;20042;-74
2021/06/15 12:38:54;;;;;;;2.35;1.35;;;33.80;30.30;;;;;;6221639;28;20133;-74
2021/06/15 12:41:58;;;;;;;3.30;1.50;;;33.60;31.00;;;;;;6221971;28;20499;-74
2021/06/15 12:45:01;;;;;;;2.70;1.58;;;33.20;32.10;;;;;;6221502;28;20053;-76
2021/06/15 12:48:19;;;;;;;2.42;1.42;;;33.40;32.50;;;;;;6221597;28;20393;-75
2021/06/15 12:51:22;;;;;;;5.53;2.00;;;33.90;33.20;;;;;;6221026;28;20115;-74
2021/06/15 12:54:29;;;;;;;3.08;1.77;;;34.20;32.50;;;;;;6221716;28;20205;-73
2021/06/15 12:57:31;;;;;;;7.70;1.67;;;34.00;31.80;;;;;;6221700;28;20164;-74
2021/06/15 13:00:33;;;;;;;3.30;1.48;;;33.80;32.10;;;;;;6220779;28;20080;-73
2021/06/15 13:03:37;;;;;;;5.38;1.70;;;34.00;32.40;;;;;;6221602;28;20115;-76
2021/06/15 13:06:39;;;;;;;3.50;1.80;;;34.00;31.60;;;;;;6221146;28;20440;-77
2021/06/15 13:09:41;;;;;;;2.88;1.10;;;34.00;31.50;;;;;;6220952;28;20078;-76
2021/06/15 13:12:46;;;;;;;1.92;1.25;;;34.20;31.10;;;;;;6220949;28;20164;-75
2021/06/15 13:15:48;;;;;;;2.20;1.60;;;34.60;31.10;;;;;;6221323;28;20116;-75
2021/06/15 13:19:02;;;;;;;2.55;1.80;;;34.70;30.80;;;;;;6223151;28;20077;-76
2021/06/15 13:22:04;;;;;;;3.60;1.25;;;34.80;30.00;;;;;;6225996;28;20095;-76
2021/06/15 13:25:07;;;;;;;2.10;1.13;;;34.80;30.00;;;;;;6225244;28;20143;-75
2021/06/15 13:28:11;;;;;;;4.00;1.05;;;34.70;30.30;;;;;;6225505;28;20095;-76
2021/06/15 13:31:22;;;;;;;1.27;0.88;;;34.80;30.60;;;;;;6224935;28;20046;-76
2021/06/15 13:34:26;;;;;;;2.17;1.95;;;34.40;30.00;;;;;;6221499;28;20064;-76
2021/06/15 13:37:28;;;;;;;5.13;1.45;;;34.40;30.30;;;;;;6225160;28;20049;-76
2021/06/15 13:40:35;;;;;;;4.28;1.67;;;34.30;30.00;;;;;;6225244;28;20046;-76
2021/06/15 13:43:39;;;;;;;1.85;1.10;;;33.90;30.60;;;;;;6225357;28;20072;-76
2021/06/15 13:46:40;;;;;;;5.22;1.60;;;33.80;30.30;;;;;;6225492;28;20053;-76
2021/06/15 13:49:43;;;;;;;2.80;1.55;;;33.90;31.80;;;;;;6224685;28;20170;-76
2021/06/15 13:52:47;;;;;;;7.57;2.45;;;34.00;30.40;;;;;;6224719;28;20176;-76
2021/06/15 13:55:49;;;;;;;4.25;2.33;;;34.40;32.20;;;;;;6224891;28;20133;-76
2021/06/15 13:58:51;;;;;;;6.10;2.25;;;34.70;33.20;;;;;;6224616;28;20512;-75
2021/06/15 14:01:52;;;;;;;2.38;2.00;;;34.80;33.10;;;;;;6225282;28;20119;-76
2021/06/15 14:04:55;;;;;;;5.75;1.80;;;34.70;33.40;;;;;;6224601;28;20057;-76
2021/06/15 14:07:57;;;;;;;3.30;1.60;;;34.80;32.50;;;;;;6224809;28;20132;-75
2021/06/15 14:10:59;;;;;;;5.80;1.65;;;35.20;30.70;;;;;;6223801;28;20074;-78
2021/06/15 14:14:02;;;;;;;3.17;1.90;;;35.20;30.00;;;;;;6224787;28;20160;-76
2021/06/15 14:17:04;;;;;;;5.53;1.27;;;35.60;31.10;;;;;;6224388;28;20512;-74
2021/06/15 14:20:10;;;;;;;4.15;1.55;;;35.70;29.80;;;;;;6224226;28;20041;-74
2021/06/15 14:23:12;;;;;;;1.42;1.33;;;35.80;29.30;;;;;;6224597;28;20053;-76
2021/06/15 14:26:14;;;;;;;1.42;1.33;;;35.70;29.20;;;;;;6224824;28;20077;-74
2021/06/15 14:29:16;;;;;;;3.40;1.48;;;35.60;29.00;;;;;;6223206;28;20534;-74
2021/06/15 14:32:18;;;;;;;4.60;1.92;;;35.80;29.80;;;;;;6223422;28;20041;-75
2021/06/15 14:35:22;;;;;;;6.22;2.63;;;35.80;30.00;;;;;;6211667;28;20046;-75
2021/06/15 14:38:24;;;;;;;3.17;1.60;;;35.80;30.80;;;;;;6199971;28;20054;-76
2021/06/15 14:41:25;;;;;;;3.28;1.85;;;35.60;31.00;;;;;;6199482;28;20128;-74
2021/06/15 14:44:27;;;;;;;3.40;1.55;;;35.70;30.20;;;;;;6199560;28;20050;-76
2021/06/15 14:47:29;;;;;;;4.53;2.00;;;35.70;29.90;;;;;;6199767;28;20098;-74
2021/06/15 14:50:32;;;;;;;1.83;1.42;;;35.70;29.90;;;;;;6199393;28;20054;-73
2021/06/15 14:53:34;;;;;;;6.25;1.83;;;35.80;29.90;;;;;;6199234;28;20511;-74
2021/06/15 14:56:38;;;;;;;3.03;1.48;;;35.80;29.60;;;;;;6199646;28;20120;-75
2021/06/15 14:59:40;;;;;;;3.63;1.65;;;35.80;29.10;;;;;;6198875;28;20577;-74
2021/06/15 15:02:42;;;;;;;1.88;1.13;;;35.80;29.30;;;;;;6199587;28;20074;-74
2021/06/15 15:05:45;;;;;;;4.75;1.60;;;35.70;29.60;;;;;;6199067;28;20181;-74
2021/06/15 15:08:47;;;;;;;4.72;1.50;;;35.70;29.30;;;;;;6198972;28;20161;-74
2021/06/15 15:11:49;;;;;;;3.88;1.52;;;35.60;29.50;;;;;;6199016;28;20061;-74
2021/06/15 15:14:51;;;;;;;4.03;1.85;;;35.60;29.70;;;;;;6219101;28;20107;-76
2021/06/15 15:17:53;;;;;;;2.13;1.58;;;35.60;29.70;;;;;;6223057;28;20566;-74
2021/06/15 15:20:57;;;;;;;3.95;1.77;;;35.50;29.60;;;;;;6223145;28;20056;-75
2021/06/15 15:24:00;;;;;;;4.45;1.52;;;35.40;29.70;;;;;;6222966;28;20073;-76
2021/06/15 15:27:03;;;;;;;1.52;1.25;;;35.40;29.70;;;;;;6222979;28;20397;-74
2021/06/15 15:30:07;;;;;;;2.65;1.88;;;35.30;29.40;;;;;;6222966;28;20139;-77
2021/06/15 15:33:09;;;;;;;9.32;2.28;;;35.20;29.40;;;;;;6222848;28;20116;-77
2021/06/15 15:36:12;;;;;;;2.50;1.15;;;35.10;29.80;;;;;;6218554;28;20128;-76
2021/06/15 15:39:14;;;;;;;1.75;1.20;;;35.10;29.20;;;;;;6222704;28;20172;-77
2021/06/15 15:42:16;;;;;;;2.00;1.13;;;35.10;28.70;;;;;;6223702;28;20139;-76
2021/06/15 15:45:20;;;;;;;2.85;1.45;;;35.20;28.90;;;;;;6223021;28;20208;-77
2021/06/15 15:48:22;;;;;;;3.30;1.38;;;35.20;28.50;;;;;;6222711;28;20499;-76
2021/06/15 15:51:27;;;;;;;3.15;1.55;;;35.20;28.40;;;;;;6222129;28;20639;-74
2021/06/15 15:54:29;;;;;;;5.90;1.88;;;35.20;28.30;;;;;;6223093;28;20137;-76
2021/06/15 15:57:32;;;;;;;6.55;2.28;;;35.00;28.20;;;;;;6222563;28;20527;-76
2021/06/15 16:00:34;;;;;;;11.02;1.42;;;35.00;28.30;;;;;;6222415;28;20524;-77
2021/06/15 16:03:37;;;;;;;2.53;1.45;;;35.00;27.80;;;;;;6222354;28;20092;-74